createdAt,value
2019-04-27T00:01:33.989Z,12.27
2019-04-27T00:04:25.299Z,12.00
2019-04-27T00:06:57.927Z,12.43
2019-04-27T00:09:36.167Z,11.90
2019-04-27T00:12:07.296Z,11.67
2019-04-27T00:14:36.372Z,11.77
2019-04-27T00:17:45.005Z,13.20
2019-04-27T00:20:15.220Z,13.10
2019-04-27T00:22:48.720Z,13.60
2019-04-27T00:25:17.580Z,13.50
2019-04-27T00:27:46.361Z,13.40
2019-04-27T00:30:15.498Z,13.00
2019-04-27T00:32:44.416Z,13.90
2019-04-27T00:35:16.261Z,12.73
2019-04-27T00:38:00.171Z,13.40
2019-04-27T00:40:37.972Z,13.00
2019-04-27T00:43:06.718Z,12.77
2019-04-27T00:45:35.663Z,13.10
2019-04-27T00:48:10.779Z,12.57
2019-04-27T00:50:40.689Z,11.77
2019-04-27T00:53:09.590Z,12.80
2019-04-27T00:55:46.578Z,12.10
2019-04-27T00:58:29.291Z,12.33
2019-04-27T01:01:08.271Z,12.20
2019-04-27T01:03:56.154Z,13.37
2019-04-27T01:06:25.173Z,11.60
2019-04-27T01:08:53.890Z,11.27
2019-04-27T01:11:24.876Z,10.87
2019-04-27T01:13:59.622Z,9.57
2019-04-27T01:16:29.355Z,9.73
2019-04-27T01:18:58.950Z,8.17
2019-04-27T01:21:29.434Z,9.00
2019-04-27T01:24:01.590Z,7.87
2019-04-27T01:26:50.026Z,8.33
2019-04-27T01:29:24.301Z,8.17
2019-04-27T01:31:53.060Z,8.00
2019-04-27T01:34:25.026Z,8.03
2019-04-27T01:36:56.860Z,7.40
2019-04-27T01:39:25.844Z,7.17
2019-04-27T01:41:54.586Z,7.70
2019-04-27T01:44:23.462Z,7.50
2019-04-27T01:46:59.964Z,7.30
2019-04-27T01:49:29.481Z,7.60
2019-04-27T01:52:01.571Z,7.40
2019-04-27T01:54:33.670Z,8.27
2019-04-27T01:57:04.212Z,7.77
2019-04-27T01:59:35.275Z,7.50
2019-04-27T02:02:26.345Z,7.23
2019-04-27T02:05:14.243Z,7.20
2019-04-27T02:07:44.213Z,6.70
2019-04-27T02:10:13.852Z,6.73
2019-04-27T02:12:46.274Z,6.93
2019-04-27T02:15:19.235Z,6.63
2019-04-27T02:17:51.564Z,6.50
2019-04-27T02:20:35.885Z,7.00
2019-04-27T02:23:09.298Z,6.17
2019-04-27T02:25:39.657Z,6.60
2019-04-27T02:28:19.461Z,6.97
2019-04-27T02:31:10.999Z,6.77
2019-04-27T02:33:46.616Z,6.97
2019-04-27T02:36:15.451Z,7.20
2019-04-27T02:38:51.575Z,7.60
2019-04-27T02:41:20.318Z,7.13
2019-04-27T02:43:56.775Z,7.50
2019-04-27T02:46:31.738Z,7.07
2019-04-27T02:49:06.201Z,7.70
2019-04-27T02:51:46.658Z,7.30
2019-04-27T02:54:15.554Z,7.33
2019-04-27T02:56:46.567Z,6.73
2019-04-27T02:59:15.522Z,8.07
2019-04-27T03:01:53.536Z,6.50
2019-04-27T03:04:33.919Z,6.33
2019-04-27T03:07:06.827Z,6.40
2019-04-27T03:09:35.579Z,7.17
2019-04-27T03:12:04.860Z,6.10
2019-04-27T03:14:52.676Z,6.47
2019-04-27T03:17:43.553Z,7.53
2019-04-27T03:20:32.728Z,7.60
2019-04-27T03:23:05.074Z,6.90
2019-04-27T03:25:52.925Z,7.57
2019-04-27T03:28:21.743Z,8.10
2019-04-27T03:30:52.038Z,8.63
2019-04-27T03:33:22.515Z,8.77
2019-04-27T03:35:55.136Z,8.70
2019-04-27T03:38:24.167Z,8.13
2019-04-27T03:40:53.322Z,8.77
2019-04-27T03:43:24.512Z,7.87
2019-04-27T03:45:54.028Z,7.97
2019-04-27T03:48:22.733Z,8.50
2019-04-27T03:51:10.617Z,7.50
2019-04-27T03:53:57.144Z,7.20
2019-04-27T03:56:31.166Z,7.97
2019-04-27T03:59:10.361Z,8.00
2019-04-27T04:01:43.354Z,8.33
2019-04-27T04:04:12.163Z,8.20
2019-04-27T04:06:41.021Z,8.07
2019-04-27T04:09:10.676Z,9.57
2019-04-27T04:11:49.157Z,9.80
2019-04-27T04:14:20.344Z,8.93
2019-04-27T04:16:53.115Z,10.03
2019-04-27T04:19:22.200Z,9.03
2019-04-27T04:21:51.092Z,8.97
2019-04-27T04:24:20.201Z,9.23
2019-04-27T04:26:50.550Z,10.60
2019-04-27T04:29:20.258Z,9.50
2019-04-27T04:31:50.295Z,9.80
2019-04-27T04:34:24.743Z,9.37
2019-04-27T04:37:00.593Z,9.00
2019-04-27T04:39:29.786Z,10.27
2019-04-27T04:42:05.677Z,10.23
2019-04-27T04:44:50.221Z,11.17
2019-04-27T04:47:26.745Z,9.93
2019-04-27T04:50:10.307Z,10.33
2019-04-27T04:52:26.077Z,11.30
2019-04-27T04:54:56.671Z,10.27
2019-04-27T04:57:29.944Z,10.17
2019-04-27T04:59:59.360Z,12.17
2019-04-27T05:02:29.333Z,12.40
2019-04-27T05:05:05.277Z,12.33
2019-04-27T05:07:34.053Z,13.53
2019-04-27T05:10:02.835Z,13.80
2019-04-27T05:12:31.581Z,13.77
2019-04-27T05:15:03.374Z,14.80
2019-04-27T05:17:32.082Z,14.33
2019-04-27T05:20:26.191Z,13.43
2019-04-27T05:22:52.707Z,12.80
2019-04-27T05:25:24.957Z,14.17
2019-04-27T05:27:53.666Z,15.83
2019-04-27T05:30:22.434Z,14.73
2019-04-27T05:32:51.039Z,12.73
2019-04-27T05:35:19.771Z,14.63
2019-04-27T05:37:49.215Z,13.47
2019-04-27T05:40:21.385Z,13.60
2019-04-27T05:42:55.215Z,12.23
2019-04-27T05:45:48.808Z,13.10
2019-04-27T05:48:27.447Z,12.80
2019-04-27T05:50:58.283Z,13.67
2019-04-27T05:53:21.475Z,14.00
2019-04-27T05:55:50.237Z,14.67
2019-04-27T05:58:19.553Z,14.67
2019-04-27T06:00:49.585Z,15.23
2019-04-27T06:03:18.655Z,14.10
2019-04-27T06:05:48.989Z,16.73
2019-04-27T06:08:18.787Z,14.73
2019-04-27T06:10:48.928Z,13.33
2019-04-27T06:13:18.981Z,13.43
2019-04-27T06:15:47.865Z,14.27
2019-04-27T06:18:16.565Z,12.70
2019-04-27T06:20:53.292Z,12.67
2019-04-27T06:23:16.108Z,12.17
2019-04-27T06:25:44.838Z,12.93
2019-04-27T06:28:13.493Z,13.47
2019-04-27T06:30:42.225Z,13.00
2019-04-27T06:33:11.049Z,14.57
2019-04-27T06:35:40.024Z,13.63
2019-04-27T06:38:10.179Z,13.67
2019-04-27T06:40:39.440Z,12.53
2019-04-27T06:43:08.716Z,12.43
2019-04-27T06:45:38.800Z,11.60
2019-04-27T06:48:09.498Z,13.53
2019-04-27T06:50:38.938Z,11.97
2019-04-27T06:53:09.102Z,11.37
2019-04-27T06:55:39.220Z,12.27
2019-04-27T06:58:08.950Z,13.00
2019-04-27T07:00:39.506Z,11.43
2019-04-27T07:03:08.981Z,10.30
2019-04-27T07:05:38.912Z,10.43
2019-04-27T07:08:08.977Z,10.27
2019-04-27T07:10:39.163Z,9.93
2019-04-27T07:13:09.638Z,10.27
2019-04-27T07:15:38.777Z,9.77
2019-04-27T07:18:07.546Z,8.03
2019-04-27T07:20:36.361Z,8.33
2019-04-27T07:23:05.105Z,8.00
2019-04-27T07:25:33.887Z,8.70
2019-04-27T07:28:02.601Z,8.33
2019-04-27T07:30:31.407Z,7.37
2019-04-27T07:33:00.463Z,7.90
2019-04-27T07:35:29.632Z,9.73
2019-04-27T07:37:58.888Z,9.70
2019-04-27T07:40:28.928Z,7.80
2019-04-27T07:43:09.097Z,10.70
2019-04-27T07:45:39.593Z,14.60
2019-04-27T07:48:09.133Z,11.77
2019-04-27T07:50:39.059Z,11.53
2019-04-27T07:53:08.663Z,12.07
2019-04-27T07:55:39.275Z,9.20
2019-04-27T07:58:08.930Z,9.03
2019-04-27T08:00:39.439Z,9.13
2019-04-27T08:03:09.795Z,9.67
2019-04-27T08:05:39.183Z,8.53
2019-04-27T08:08:08.961Z,8.00
2019-04-27T08:10:39.222Z,8.37
2019-04-27T08:13:09.492Z,9.03
2019-04-27T08:15:39.608Z,9.20
2019-04-27T08:18:09.030Z,7.87
2019-04-27T08:20:39.070Z,6.60
2019-04-27T08:23:09.495Z,7.07
2019-04-27T08:25:39.226Z,6.70
2019-04-27T08:28:28.697Z,6.70
2019-04-27T08:31:11.718Z,6.10
2019-04-27T08:33:40.369Z,5.07
2019-04-27T08:36:09.225Z,4.50
2019-04-27T08:38:38.975Z,5.10
2019-04-27T08:41:08.989Z,5.63
2019-04-27T08:43:38.994Z,3.97
2019-04-27T08:46:08.795Z,3.03
2019-04-27T08:48:39.311Z,3.47
2019-04-27T08:51:09.583Z,3.60
2019-04-27T08:53:39.781Z,3.23
2019-04-27T08:56:09.394Z,3.07
2019-04-27T08:58:38.605Z,3.27
2019-04-27T09:01:09.978Z,3.57
2019-04-27T09:03:39.460Z,4.03
2019-04-27T09:06:09.745Z,3.97
2019-04-27T09:08:50.664Z,4.80
2019-04-27T09:11:35.463Z,3.70
2019-04-27T09:14:11.534Z,3.97
2019-04-27T09:17:02.817Z,4.20
2019-04-27T09:19:42.444Z,4.10
2019-04-27T09:22:16.009Z,5.13
2019-04-27T09:24:41.696Z,4.83
2019-04-27T09:27:10.510Z,5.00
2019-04-27T09:29:39.660Z,5.17
2019-04-27T09:32:08.875Z,6.07
2019-04-27T09:34:37.727Z,6.10
2019-04-27T09:37:06.564Z,6.80
2019-04-27T09:39:36.291Z,6.63
2019-04-27T09:42:06.487Z,7.13
2019-04-27T09:44:37.158Z,7.20
2019-04-27T09:47:06.215Z,7.63
2019-04-27T09:49:36.698Z,9.97
2019-04-27T09:52:06.318Z,9.60
2019-04-27T09:54:36.513Z,10.00
2019-04-27T09:57:06.940Z,12.67
2019-04-27T09:59:39.425Z,10.93
2019-04-27T10:02:08.449Z,12.90
2019-04-27T10:04:48.295Z,12.43
2019-04-27T10:07:38.776Z,12.13
2019-04-27T10:10:20.303Z,12.10
2019-04-27T10:12:52.955Z,12.80
2019-04-27T10:16:39.522Z,12.60
2019-04-27T10:17:58.677Z,14.07
2019-04-27T10:20:41.163Z,15.60
2019-04-27T10:23:10.292Z,13.90
2019-04-27T10:25:39.184Z,13.40
2019-04-27T10:28:07.981Z,14.17
2019-04-27T10:30:36.768Z,15.13
2019-04-27T10:33:05.980Z,14.07
2019-04-27T10:35:36.438Z,14.97
2019-04-27T10:38:05.480Z,15.57
2019-04-27T10:40:34.239Z,13.30
2019-04-27T10:43:03.063Z,13.17
2019-04-27T10:45:31.795Z,13.87
2019-04-27T10:48:00.434Z,14.13
2019-04-27T10:50:29.166Z,13.37
2019-04-27T10:52:59.321Z,15.30
2019-04-27T10:55:28.266Z,14.03
2019-04-27T10:57:56.993Z,13.67
2019-04-27T11:00:32.547Z,14.87
2019-04-27T11:03:01.270Z,12.90
2019-04-27T11:05:36.280Z,15.70
2019-04-27T11:08:06.597Z,13.13
2019-04-27T11:10:36.093Z,13.40
2019-04-27T11:13:06.269Z,13.03
2019-04-27T11:15:37.022Z,13.37
2019-04-27T11:18:06.359Z,13.30
2019-04-27T11:20:36.302Z,13.57
2019-04-27T11:23:09.236Z,13.40
2019-04-27T11:25:36.515Z,13.63
2019-04-27T11:28:05.806Z,12.83
2019-04-27T11:30:34.625Z,12.97
2019-04-27T11:33:03.365Z,11.93
2019-04-27T11:35:43.855Z,12.97
2019-04-27T11:38:12.744Z,13.00
2019-04-27T11:40:41.495Z,12.30
2019-04-27T11:43:10.315Z,13.47
2019-04-27T11:45:39.046Z,12.57
2019-04-27T11:48:07.767Z,13.10
2019-04-27T11:50:36.554Z,11.73
2019-04-27T11:53:06.226Z,10.87
2019-04-27T11:55:35.080Z,10.03
2019-04-27T11:58:03.904Z,9.63
2019-04-27T12:00:32.877Z,8.90
2019-04-27T12:03:01.465Z,9.00
2019-04-27T12:05:30.236Z,8.73
2019-04-27T12:07:58.854Z,8.80
2019-04-27T12:10:27.587Z,8.40
2019-04-27T12:12:56.480Z,8.40
2019-04-27T12:15:26.228Z,8.50
2019-04-27T12:17:56.102Z,8.30
2019-04-27T12:20:25.852Z,7.50
2019-04-27T12:22:54.797Z,7.97
2019-04-27T12:25:23.591Z,7.27
2019-04-27T12:28:11.419Z,8.27
2019-04-27T12:30:45.975Z,7.23
2019-04-27T12:33:14.664Z,7.60
2019-04-27T12:35:43.404Z,7.60
2019-04-27T12:38:12.191Z,8.13
2019-04-27T12:40:41.045Z,8.57
2019-04-27T12:43:09.797Z,8.17
2019-04-27T12:45:40.399Z,7.03
2019-04-27T12:48:08.970Z,7.80
2019-04-27T12:50:37.946Z,7.80
2019-04-27T12:53:09.438Z,6.63
2019-04-27T12:55:57.280Z,7.20
2019-04-27T12:58:45.034Z,7.67
2019-04-27T13:01:15.762Z,7.50
2019-04-27T13:03:46.205Z,6.43
2019-04-27T13:09:10.436Z,7.87
2019-04-27T13:11:39.300Z,7.27
2019-04-27T13:14:07.996Z,8.37
2019-04-27T13:16:36.825Z,8.67
2019-04-27T13:19:06.177Z,7.70
2019-04-27T13:21:36.575Z,7.50
2019-04-27T13:24:07.026Z,8.60
2019-04-27T13:26:36.221Z,8.90
2019-04-27T13:29:06.759Z,8.63
2019-04-27T13:31:36.920Z,8.70
2019-04-27T13:34:05.866Z,9.03
2019-04-27T13:36:36.625Z,8.00
2019-04-27T13:39:06.393Z,9.37
2019-04-27T13:41:35.912Z,8.40
2019-04-27T13:44:06.443Z,8.20
2019-04-27T13:46:55.955Z,8.83
2019-04-27T13:49:46.854Z,8.70
2019-04-27T13:52:19.476Z,8.53
2019-04-27T13:54:48.375Z,10.37
2019-04-27T13:57:18.395Z,9.07
2019-04-27T13:59:47.249Z,8.40
2019-04-27T14:02:16.202Z,8.60
2019-04-27T14:04:45.093Z,8.10
2019-04-27T14:07:13.874Z,7.97
2019-04-27T14:09:42.588Z,8.30
2019-04-27T14:12:18.797Z,8.00
2019-04-27T14:14:48.972Z,7.20
2019-04-27T14:17:19.314Z,7.47
2019-04-27T14:19:48.342Z,7.57
2019-04-27T14:22:18.243Z,8.00
2019-04-27T14:24:48.736Z,7.33
2019-04-27T14:27:20.189Z,7.87
2019-04-27T14:29:49.087Z,8.13
2019-04-27T14:32:18.734Z,8.67
2019-04-27T14:34:50.063Z,8.10
2019-04-27T14:37:18.631Z,9.63
2019-04-27T14:39:47.831Z,8.77
2019-04-27T14:42:16.828Z,8.97
2019-04-27T14:44:48.988Z,8.00
2019-04-27T14:47:21.383Z,9.17
2019-04-27T14:49:50.117Z,8.27
2019-04-27T14:52:20.174Z,8.00
2019-04-27T14:54:50.890Z,7.23
2019-04-27T14:57:20.475Z,7.70
2019-04-27T14:59:49.488Z,7.77
2019-04-27T15:02:18.597Z,7.83
2019-04-27T15:04:47.379Z,8.50
2019-04-27T15:07:19.463Z,8.47
2019-04-27T15:09:49.691Z,7.67
2019-04-27T15:12:18.630Z,8.90
2019-04-27T15:14:47.532Z,7.90
2019-04-27T15:17:17.434Z,7.83
2019-04-27T15:19:53.920Z,7.87
2019-04-27T15:22:26.810Z,7.93
2019-04-27T15:25:09.210Z,8.27
2019-04-27T15:27:37.411Z,8.43
2019-04-27T15:30:06.078Z,7.43
2019-04-27T15:32:51.530Z,6.63
2019-04-27T15:35:31.335Z,6.50
2019-04-27T15:38:08.532Z,7.10
2019-04-27T15:40:54.678Z,8.20
2019-04-27T15:43:30.821Z,7.50
2019-04-27T15:45:58.742Z,6.90
2019-04-27T15:48:30.655Z,7.43
2019-04-27T15:51:02.863Z,8.13
2019-04-27T15:53:28.507Z,7.60
2019-04-27T15:55:58.329Z,7.33
2019-04-27T15:58:28.385Z,7.27
2019-04-27T16:01:02.343Z,7.20
2019-04-27T16:03:31.260Z,8.30
2019-04-27T16:05:58.846Z,7.73
2019-04-27T16:08:28.824Z,8.13
2019-04-27T16:10:58.830Z,7.93
2019-04-27T16:13:32.681Z,7.47
2019-04-27T16:15:58.477Z,8.43
2019-04-27T16:18:31.121Z,7.23
2019-04-27T16:21:02.847Z,7.97
2019-04-27T16:23:33.648Z,6.87
2019-04-27T16:26:05.118Z,6.37
2019-04-27T16:28:33.821Z,6.60
2019-04-27T16:31:02.651Z,6.30
2019-04-27T16:33:31.389Z,6.47
2019-04-27T16:36:06.387Z,6.47
2019-04-27T16:38:44.506Z,5.97
2019-04-27T16:41:13.329Z,6.47
2019-04-27T16:43:42.382Z,6.93
2019-04-27T16:46:12.192Z,4.83
2019-04-27T16:48:40.986Z,6.63
2019-04-27T16:51:10.902Z,6.20
2019-04-27T16:53:41.153Z,6.53
2019-04-27T16:56:15.199Z,5.63
2019-04-27T16:58:40.649Z,5.43
2019-04-27T17:01:18.856Z,6.07
2019-04-27T17:03:48.525Z,5.07
2019-04-27T17:06:21.023Z,4.73
2019-04-27T17:08:49.660Z,5.47
2019-04-27T17:11:19.577Z,5.60
2019-04-27T17:13:53.286Z,6.43
2019-04-27T17:16:41.045Z,5.33
2019-04-27T17:19:14.886Z,6.97
2019-04-27T17:21:43.659Z,6.07
2019-04-27T17:24:14.044Z,6.63
2019-04-27T17:26:43.749Z,6.90
2019-04-27T17:29:16.641Z,9.07
2019-04-27T17:31:50.578Z,9.10
2019-04-27T17:34:19.026Z,9.27
2019-04-27T17:36:54.472Z,11.43
2019-04-27T17:39:23.282Z,13.47
2019-04-27T17:41:52.732Z,11.03
2019-04-27T17:44:23.118Z,12.03
2019-04-27T17:46:51.256Z,10.97
2019-04-27T17:49:20.173Z,9.10
2019-04-27T17:51:48.918Z,9.40
2019-04-27T17:54:18.184Z,7.00
2019-04-27T17:56:50.950Z,8.47
2019-04-27T17:59:20.775Z,7.37
2019-04-27T18:01:49.607Z,7.17
2019-04-27T18:04:18.674Z,8.10
2019-04-27T18:06:48.369Z,8.20
2019-04-27T18:09:18.904Z,7.03
2019-04-27T18:11:50.189Z,6.90
2019-04-27T18:14:19.263Z,6.37
2019-04-27T18:16:48.396Z,6.63
2019-04-27T18:19:25.653Z,6.10
2019-04-27T18:22:01.001Z,5.73
2019-04-27T18:24:37.870Z,8.00
2019-04-27T18:27:18.324Z,5.67
2019-04-27T18:29:48.596Z,5.23
2019-04-27T18:32:17.580Z,5.57
2019-04-27T18:34:49.325Z,5.70
2019-04-27T18:37:20.877Z,5.70
2019-04-27T18:39:50.904Z,6.13
2019-04-27T18:42:18.178Z,7.00
2019-04-27T18:44:48.602Z,7.43
2019-04-27T18:47:17.475Z,9.77
2019-04-27T18:50:10.947Z,10.43
2019-04-27T18:52:49.505Z,9.20
2019-04-27T18:55:18.524Z,10.47
2019-04-27T18:57:50.911Z,10.17
2019-04-27T19:00:23.803Z,13.90
2019-04-27T19:02:53.528Z,10.70
2019-04-27T19:05:22.426Z,10.13
2019-04-27T19:07:55.088Z,11.27
2019-04-27T19:10:28.183Z,11.03
2019-04-27T19:12:58.481Z,12.13
2019-04-27T19:15:28.590Z,11.97
2019-04-27T19:17:58.167Z,11.60
2019-04-27T19:20:28.818Z,10.23
2019-04-27T19:22:59.754Z,12.83
2019-04-27T19:25:48.229Z,13.43
2019-04-27T19:28:34.803Z,12.07
2019-04-27T19:31:08.273Z,11.17
2019-04-27T19:33:37.265Z,12.60
2019-04-27T19:36:06.040Z,12.03
2019-04-27T19:38:34.927Z,12.93
2019-04-27T19:41:03.753Z,14.07
2019-04-27T19:43:32.534Z,15.33
2019-04-27T19:46:01.264Z,11.30
2019-04-27T19:48:29.996Z,11.87
2019-04-27T19:51:00.183Z,13.57
2019-04-27T19:53:29.048Z,14.43
2019-04-27T19:56:03.935Z,16.17
2019-04-27T19:58:38.073Z,16.17
2019-04-27T20:01:14.247Z,16.63
2019-04-27T20:03:46.405Z,15.70
2019-04-27T20:06:15.158Z,16.83
2019-04-27T20:08:46.719Z,16.87
2019-04-27T20:11:17.554Z,19.57
2019-04-27T20:13:48.626Z,18.83
2019-04-27T20:16:17.502Z,19.93
2019-04-27T20:18:46.381Z,20.87
2019-04-27T20:21:15.454Z,19.47
2019-04-27T20:23:44.260Z,21.40
2019-04-27T20:26:12.905Z,21.10
2019-04-27T20:28:41.623Z,20.23
2019-04-27T20:31:10.320Z,20.57
2019-04-27T20:33:39.012Z,20.53
2019-04-27T20:36:07.763Z,20.87
2019-04-27T20:38:36.498Z,20.07
2019-04-27T20:41:05.175Z,19.97
2019-04-27T20:43:33.876Z,19.53
2019-04-27T20:46:02.655Z,17.33
2019-04-27T20:48:31.371Z,18.60
2019-04-27T20:51:01.266Z,18.67
2019-04-27T20:53:35.273Z,19.93
2019-04-27T20:56:03.956Z,19.77
2019-04-27T20:58:32.616Z,19.33
2019-04-27T21:01:01.757Z,18.63
2019-04-27T21:03:34.741Z,17.97
2019-04-27T21:06:22.661Z,18.50
2019-04-27T21:08:51.796Z,20.70
2019-04-27T21:11:20.971Z,19.23
2019-04-27T21:13:51.943Z,20.80
2019-04-27T21:16:21.128Z,19.87
2019-04-27T21:18:51.335Z,18.30
2019-04-27T21:21:20.751Z,20.50
2019-04-27T21:23:51.443Z,19.83
2019-04-27T21:26:28.507Z,18.43
2019-04-27T21:28:57.485Z,22.13
2019-04-27T21:31:26.311Z,20.87
2019-04-27T21:33:55.033Z,20.00
2019-04-27T21:36:23.955Z,20.10
2019-04-27T21:38:52.717Z,21.33
2019-04-27T21:41:23.500Z,20.87
2019-04-27T21:43:52.456Z,21.07
2019-04-27T21:46:22.789Z,22.20
2019-04-27T21:48:56.003Z,19.37
2019-04-27T21:51:24.989Z,20.27
2019-04-27T21:54:02.908Z,20.43
2019-04-27T21:56:31.831Z,20.30
2019-04-27T21:59:01.074Z,20.10
2019-04-27T22:01:32.059Z,19.53
2019-04-27T22:04:03.998Z,19.70
2019-04-27T22:06:32.920Z,20.53
2019-04-27T22:09:01.810Z,22.13
2019-04-27T22:11:31.902Z,21.50
2019-04-27T22:14:01.394Z,20.17
2019-04-27T22:16:31.452Z,22.97
2019-04-27T22:19:01.966Z,21.53
2019-04-27T22:21:31.701Z,24.00
2019-04-27T22:24:11.162Z,19.87
2019-04-27T22:26:41.490Z,20.37
2019-04-27T22:29:12.034Z,22.87
2019-04-27T22:31:41.601Z,19.83
2019-04-27T22:34:10.888Z,18.13
2019-04-27T22:36:39.875Z,21.37
2019-04-27T22:39:23.116Z,20.67
2019-04-27T22:42:12.125Z,17.33
2019-04-27T22:44:47.333Z,18.27
2019-04-27T22:47:16.230Z,18.40
2019-04-27T22:49:45.128Z,19.80
2019-04-27T22:52:14.040Z,21.10
2019-04-27T22:54:42.877Z,20.37
2019-04-27T22:57:18.317Z,20.63
2019-04-27T23:00:06.212Z,21.30
2019-04-27T23:02:43.012Z,19.50
2019-04-27T23:05:11.912Z,18.53
2019-04-27T23:07:41.428Z,18.27
2019-04-27T23:10:11.283Z,20.03
2019-04-27T23:12:44.571Z,21.70
2019-04-27T23:15:17.522Z,20.43
2019-04-27T23:17:55.322Z,23.00
2019-04-27T23:20:24.374Z,19.87
2019-04-27T23:22:53.338Z,20.57
2019-04-27T23:25:22.417Z,21.17
2019-04-27T23:27:51.491Z,22.67
2019-04-27T23:30:22.002Z,22.83
2019-04-27T23:32:53.975Z,21.63
2019-04-27T23:35:22.972Z,20.93
2019-04-27T23:37:52.875Z,19.60
2019-04-27T23:40:22.048Z,20.67
2019-04-27T23:42:51.622Z,23.23
2019-04-27T23:45:23.661Z,22.03
2019-04-27T23:47:52.602Z,21.33
2019-04-27T23:50:21.989Z,22.43
2019-04-27T23:53:11.749Z,21.50
2019-04-27T23:55:42.061Z,19.30
2019-04-27T23:58:11.078Z,19.63
